Hopewell Junction, NY

6:18 AM EST on November 27, 2014 (GMT -0500)
APRSWXNET Hopewell Junction NY US | Change Station
CLOSE
Current Station
Personal Weather Station
Location: Hopewell Junction, NY
Elevation: 1482 ft
Nearby Weather Stations

Elev 1482 ft 41.60 °N, 73.78 °W | Updated 30 minutes ago

Mostly Cloudy
Mostly Cloudy
28.0 °F
Feels Like 28.0 °F
N
0.0
Wind Variable Wind from NNW
Gusts 0.0 mph

Today
High -- | Low -- °F
--% Chance of Precip.
Yesterday
High -- | Low -- °F
Precip. -- in
6:58 AM 4:27 PM
Waxing Crescent, 28% visible
Pressure 29.95 in
Visibility 2.5 miles
Clouds Mostly Cloudy 12000 ft
Dew Point 26.0 °F
Humidity 93%
Rainfall 0.01 in
Snow Depth Not available.
UV 0 out of 12
Pollen .10 out of 12
Air Quality Not available.
Flu Activity Not available.
SPECI KPOU 271114Z 00000KT 2 1/2SM BR BKN120 M03/M04 A2995 RMK AO2 T10331039

More Conditions Fewer Conditions

Pressure 29.95 in
Visibility 2.5 miles
Clouds Mostly Cloudy 12000 ft
Dew Point 26.0 °F
Humidity 93%
Rainfall 0.01 in
Snow Depth Not available.
UV 0 out of 12
Pollen .10 out of 12
Air Quality Not available.
Flu Activity Not available.
SPECI KPOU 271114Z 00000KT 2 1/2SM BR BKN120 M03/M04 A2995 RMK AO2 T10331039

More Conditions Fewer Conditions

10-Day Weather Forecast

Almanac

Astronomy

Nov. 27, 2014 Rise Set
Actual Time
Civil Twilight
Nautical Twilight
Astronomical Twilight
Moon
Length of Visible Light
Length of Day
Tomorrow will be .
, % of the Moon is Illuminated

Today's Extremes

State Highs State Lows

Community

WunderPhotos

Upload Photos

1,773,971 photos uploaded!

WunderBlogs® & News

Nearby

Air Quality

  Air Quality AQ Index Pollutant
Not available.

Snow Depth

Station Depth Elevation

Earthquake Activity

City Distance Mag. Time & Date
Minimum magnitude displayed is 2.5.

Coastal Water Temperatures

Place Temperature

Nearby Weather Stations